Terminal Aerodrome Forecast
Issued by NWS Louisville, KY

Home | Current Version | Previous Version | Text Only | Print | Product List | Glossary On
Versions: 1 2 3 4 5 6 7 8 9 10 11 12 13 14 15 16 17 18 19
000
FTUS43 KLMK 221940 AAA
TAFSDF
TAF AMD
KSDF 221940Z 2220/2324 17011KT 4SM -SHRA BKN015
     FM222300 16010KT P6SM VCSH OVC015
     FM230400 18010KT P6SM BKN025
     FM230800 19011KT P6SM -SHRA SCT020 OVC030
     FM231200 20011KT 6SM -SHRA OVC015
     FM231500 21014G22KT 3SM SHRA VCTS OVC025CB=

USA.gov is the U.S. government's official web portal to all federal, state and local government web resources and services.